createdAt,value
2018-08-16T00:01:37.604Z,86.28
2018-08-16T00:04:06.021Z,86.29
2018-08-16T00:06:34.684Z,86.47
2018-08-16T00:09:03.265Z,86.68
2018-08-16T00:11:31.608Z,85.99
2018-08-16T00:13:59.999Z,87.05
2018-08-16T00:16:28.357Z,86.32
2018-08-16T00:18:56.716Z,85.65
2018-08-16T00:21:25.083Z,85.49
2018-08-16T00:23:53.456Z,85.44
2018-08-16T00:26:21.836Z,85.46
2018-08-16T00:28:50.237Z,85.87
2018-08-16T00:31:18.616Z,86.34
2018-08-16T00:33:46.995Z,86.78
2018-08-16T00:36:15.332Z,86.80
2018-08-16T00:38:43.721Z,86.37
2018-08-16T00:41:12.060Z,86.40
2018-08-16T00:43:40.666Z,86.82
2018-08-16T00:46:09.044Z,86.66
2018-08-16T00:48:37.440Z,86.39
2018-08-16T00:51:06.888Z,86.62
2018-08-16T00:53:35.960Z,86.54
2018-08-16T00:56:04.348Z,85.93
2018-08-16T00:58:32.724Z,85.57
2018-08-16T01:01:01.084Z,85.61
2018-08-16T01:03:29.517Z,85.91
2018-08-16T01:05:57.891Z,86.00
2018-08-16T01:08:26.280Z,85.41
2018-08-16T01:10:54.632Z,86.11
2018-08-16T01:13:23.367Z,86.70
2018-08-16T01:15:51.727Z,86.12
2018-08-16T01:18:20.101Z,86.09
2018-08-16T01:20:48.757Z,86.10
2018-08-16T01:23:17.172Z,85.64
2018-08-16T01:25:46.008Z,85.58
2018-08-16T01:28:14.408Z,85.74
2018-08-16T01:30:43.105Z,85.85
2018-08-16T01:33:11.493Z,86.52
2018-08-16T01:35:40.134Z,86.49
2018-08-16T01:38:08.505Z,86.66
2018-08-16T01:40:37.816Z,85.93
2018-08-16T01:43:06.628Z,86.07
2018-08-16T01:45:35.432Z,86.41
2018-08-16T01:48:03.796Z,86.62
2018-08-16T01:50:32.136Z,86.77
2018-08-16T01:53:00.535Z,86.93
2018-08-16T01:55:28.876Z,86.67
2018-08-16T01:57:57.740Z,86.82
2018-08-16T02:00:26.112Z,85.94
2018-08-16T02:02:54.524Z,86.24
2018-08-16T02:05:22.939Z,86.00
2018-08-16T02:07:51.296Z,85.91
2018-08-16T02:10:19.932Z,86.25
2018-08-16T02:12:48.336Z,86.74
2018-08-16T02:15:16.724Z,87.32
2018-08-16T02:17:45.162Z,87.88
2018-08-16T02:20:14.664Z,87.87
2018-08-16T02:22:43.792Z,88.43
2018-08-16T02:25:12.818Z,87.70
2018-08-16T02:27:41.557Z,88.62
2018-08-16T02:30:10.637Z,88.81
2018-08-16T02:32:39.858Z,88.58
2018-08-16T02:35:08.756Z,88.36
2018-08-16T02:37:37.111Z,87.73
2018-08-16T02:40:06.779Z,87.44
2018-08-16T02:42:35.149Z,87.66
2018-08-16T02:45:03.525Z,87.57
2018-08-16T02:47:31.855Z,88.12
2018-08-16T02:50:00.200Z,88.15
2018-08-16T02:52:28.839Z,88.03
2018-08-16T02:54:57.184Z,88.31
2018-08-16T02:57:26.076Z,88.12
2018-08-16T02:59:54.436Z,88.53
2018-08-16T03:02:22.804Z,88.63
2018-08-16T03:04:51.460Z,88.84
2018-08-16T03:07:19.824Z,88.50
2018-08-16T03:09:48.440Z,88.55
2018-08-16T03:12:16.819Z,89.20
2018-08-16T03:14:45.184Z,88.81
2018-08-16T03:17:13.539Z,89.08
2018-08-16T03:19:41.932Z,89.12
2018-08-16T03:22:10.884Z,89.09
2018-08-16T03:24:39.256Z,88.91
2018-08-16T03:27:07.915Z,89.34
2018-08-16T03:29:36.300Z,89.24
2018-08-16T03:32:04.953Z,89.29
2018-08-16T03:34:33.336Z,89.50
2018-08-16T03:37:02.408Z,89.26
2018-08-16T03:39:30.763Z,89.56
2018-08-16T03:41:59.408Z,89.92
2018-08-16T03:44:27.776Z,89.98
2018-08-16T03:46:56.125Z,89.94
2018-08-16T03:49:24.498Z,90.06
2018-08-16T03:51:53.076Z,89.71
2018-08-16T03:54:21.467Z,89.53
2018-08-16T03:56:49.832Z,89.44
2018-08-16T03:59:18.202Z,89.21
2018-08-16T04:01:46.552Z,89.54
2018-08-16T04:04:15.205Z,89.17
2018-08-16T04:06:43.783Z,89.38
2018-08-16T04:09:12.128Z,89.80
2018-08-16T04:11:40.480Z,89.99
2018-08-16T04:14:09.236Z,90.12
2018-08-16T04:16:37.960Z,90.15
2018-08-16T04:19:06.688Z,90.08
2018-08-16T04:21:35.055Z,90.19
2018-08-16T04:24:03.540Z,89.90
2018-08-16T04:26:32.252Z,90.03
2018-08-16T04:29:01.607Z,89.85
2018-08-16T04:31:29.957Z,89.55
2018-08-16T04:33:58.589Z,89.43
2018-08-16T04:36:27.381Z,89.20
2018-08-16T04:38:55.728Z,89.06
2018-08-16T04:41:24.099Z,88.80
2018-08-16T04:43:52.403Z,88.66
2018-08-16T04:46:20.731Z,88.88
2018-08-16T04:48:49.107Z,88.48
2018-08-16T04:51:17.712Z,88.44
2018-08-16T04:53:46.843Z,88.27
2018-08-16T04:56:15.536Z,88.64
2018-08-16T04:58:43.955Z,88.83
2018-08-16T05:01:12.317Z,88.72
2018-08-16T05:03:40.949Z,88.73
2018-08-16T05:06:09.600Z,87.75
2018-08-16T05:08:38.021Z,87.89
2018-08-16T05:11:06.460Z,86.68
2018-08-16T05:13:35.272Z,86.43
2018-08-16T05:16:03.881Z,86.21
2018-08-16T05:18:32.260Z,86.23
2018-08-16T05:21:00.644Z,86.57
2018-08-16T05:23:29.034Z,86.32
2018-08-16T05:25:57.800Z,86.24
2018-08-16T05:28:26.181Z,86.34
2018-08-16T05:30:54.893Z,85.37
2018-08-16T05:33:23.261Z,85.88
2018-08-16T05:35:52.371Z,85.74
2018-08-16T05:38:20.756Z,85.60
2018-08-16T05:40:49.148Z,85.74
2018-08-16T05:43:17.529Z,84.83
2018-08-16T05:45:46.592Z,85.49
2018-08-16T05:48:14.932Z,85.59
2018-08-16T05:50:43.350Z,84.35
2018-08-16T05:53:11.709Z,79.31
2018-08-16T05:55:40.101Z,74.45
2018-08-16T05:58:08.493Z,69.10
2018-08-16T06:00:36.923Z,66.74
2018-08-16T06:03:05.366Z,69.59
2018-08-16T06:05:33.744Z,72.50
2018-08-16T06:08:02.068Z,73.83
2018-08-16T06:10:30.472Z,73.93
2018-08-16T06:12:58.845Z,75.20
2018-08-16T06:15:27.504Z,75.06
2018-08-16T06:17:55.860Z,77.53
2018-08-16T06:20:24.268Z,76.72
2018-08-16T06:22:52.653Z,77.68
2018-08-16T06:25:21.064Z,75.70
2018-08-16T06:27:49.403Z,68.62
2018-08-16T06:30:18.679Z,60.05
2018-08-16T06:32:47.870Z,54.96
2018-08-16T06:35:16.684Z,49.45
2018-08-16T06:37:45.052Z,43.55
2018-08-16T06:40:16.226Z,40.56
2018-08-16T06:42:45.231Z,39.01
2018-08-16T06:45:13.629Z,34.22
2018-08-16T06:47:42.328Z,34.87
2018-08-16T06:50:10.752Z,31.98
2018-08-16T06:52:39.182Z,33.07
2018-08-16T06:55:08.077Z,32.69
2018-08-16T06:57:36.481Z,39.87
2018-08-16T07:00:05.958Z,41.46
2018-08-16T07:02:34.377Z,39.58
2018-08-16T07:05:02.764Z,38.83
2018-08-16T07:07:31.175Z,36.74
2018-08-16T07:09:59.568Z,41.00
2018-08-16T07:12:28.085Z,43.22
2018-08-16T07:14:56.759Z,43.47
2018-08-16T07:17:25.145Z,39.48
2018-08-16T07:19:53.492Z,40.44
2018-08-16T07:22:21.839Z,43.03
2018-08-16T07:24:50.248Z,41.59
2018-08-16T07:27:19.480Z,42.46
2018-08-16T07:29:48.342Z,40.78
2018-08-16T07:32:16.689Z,41.14
2018-08-16T07:34:45.033Z,41.76
2018-08-16T07:37:13.408Z,37.00
2018-08-16T07:39:41.812Z,36.55
2018-08-16T07:42:10.199Z,38.25
2018-08-16T07:44:38.572Z,38.23
2018-08-16T07:47:07.154Z,39.65
2018-08-16T07:49:35.834Z,36.94
2018-08-16T07:52:05.516Z,36.26
2018-08-16T07:54:33.816Z,35.78
2018-08-16T07:57:02.259Z,32.62
2018-08-16T07:59:30.836Z,31.56
2018-08-16T08:01:59.236Z,30.20
2018-08-16T08:04:27.989Z,29.23
2018-08-16T08:06:56.400Z,31.06
2018-08-16T08:09:24.841Z,33.10
2018-08-16T08:11:53.117Z,32.77
2018-08-16T08:14:21.508Z,29.42
2018-08-16T08:16:49.867Z,27.41
2018-08-16T08:19:18.296Z,29.13
2018-08-16T08:21:47.064Z,31.02
2018-08-16T08:24:15.431Z,28.10
2018-08-16T08:26:43.772Z,29.46
2018-08-16T08:29:12.180Z,28.99
2018-08-16T08:31:40.707Z,27.68
2018-08-16T08:34:09.039Z,28.18
2018-08-16T08:36:48.435Z,29.20
2018-08-16T08:39:16.818Z,26.31
2018-08-16T08:41:46.268Z,29.23
2018-08-16T08:44:18.980Z,29.14
2018-08-16T08:46:48.777Z,26.45
2018-08-16T08:49:17.899Z,25.51
2018-08-16T08:51:46.469Z,24.54
2018-08-16T08:54:36.928Z,25.66
2018-08-16T08:57:16.364Z,22.67
2018-08-16T08:59:44.754Z,23.31
2018-08-16T09:02:13.461Z,21.42
2018-08-16T09:04:41.885Z,24.48
2018-08-16T09:07:12.920Z,26.58
2018-08-16T09:09:51.240Z,25.27
2018-08-16T09:12:30.760Z,23.34
2018-08-16T09:15:10.508Z,23.29
2018-08-16T09:17:38.896Z,22.04
2018-08-16T09:20:07.296Z,24.91
2018-08-16T09:22:35.640Z,22.11
2018-08-16T09:25:03.993Z,23.44
2018-08-16T09:27:32.344Z,22.61
2018-08-16T09:30:20.997Z,20.25
2018-08-16T09:33:00.376Z,19.76
2018-08-16T09:35:29.131Z,20.64
2018-08-16T09:37:57.829Z,21.14
2018-08-16T09:40:26.224Z,21.37
2018-08-16T09:42:54.596Z,20.10
2018-08-16T09:45:34.205Z,21.59
2018-08-16T09:48:14.137Z,23.39
2018-08-16T09:50:42.808Z,25.18
2018-08-16T09:53:11.164Z,22.70
2018-08-16T09:55:40.276Z,22.11
2018-08-16T09:58:08.668Z,21.10
2018-08-16T10:00:43.253Z,22.01
2018-08-16T10:03:11.600Z,20.77
2018-08-16T10:05:40.002Z,24.43
2018-08-16T10:08:08.428Z,22.79
2018-08-16T10:10:36.871Z,21.12
2018-08-16T10:13:05.329Z,21.15
2018-08-16T10:15:34.712Z,19.70
2018-08-16T10:18:03.545Z,19.24
2018-08-16T10:20:32.285Z,19.50
2018-08-16T10:23:00.696Z,20.42
2018-08-16T10:25:29.061Z,23.67
2018-08-16T10:27:57.430Z,24.45
2018-08-16T10:30:25.793Z,22.65
2018-08-16T10:32:54.152Z,21.16
2018-08-16T10:35:22.512Z,19.09
2018-08-16T10:37:50.836Z,18.93
2018-08-16T10:40:19.188Z,18.89
2018-08-16T10:42:47.552Z,21.09
2018-08-16T10:45:15.916Z,19.00
2018-08-16T10:47:44.263Z,18.66
2018-08-16T10:50:12.604Z,22.22
2018-08-16T10:52:42.612Z,20.57
2018-08-16T10:55:10.989Z,19.48
2018-08-16T10:57:39.501Z,18.09
2018-08-16T11:00:08.527Z,18.12
2018-08-16T11:02:38.369Z,20.28
2018-08-16T11:05:06.948Z,22.05
2018-08-16T11:07:36.090Z,18.76
2018-08-16T11:10:04.892Z,18.14
2018-08-16T11:12:33.245Z,17.07
2018-08-16T11:15:01.597Z,18.73
2018-08-16T11:17:30.574Z,18.17
2018-08-16T11:19:58.995Z,21.08
2018-08-16T11:22:27.346Z,21.44
2018-08-16T11:24:56.443Z,22.17
2018-08-16T11:27:24.791Z,19.83
2018-08-16T11:29:53.128Z,17.79
2018-08-16T11:32:21.496Z,18.67
2018-08-16T11:34:49.865Z,24.43
2018-08-16T11:37:18.233Z,22.07
2018-08-16T11:39:46.560Z,19.19
2018-08-16T11:42:14.896Z,20.21
2018-08-16T11:44:43.280Z,20.38
2018-08-16T11:47:11.635Z,20.36
2018-08-16T11:49:40.012Z,18.08
2018-08-16T11:52:08.392Z,19.75
2018-08-16T11:54:36.745Z,18.69
2018-08-16T11:57:05.489Z,18.17
2018-08-16T11:59:34.312Z,16.82
2018-08-16T12:02:03.447Z,18.43
2018-08-16T12:04:32.239Z,17.94
2018-08-16T12:07:00.628Z,18.40
2018-08-16T12:09:30.578Z,19.85
2018-08-16T12:11:58.989Z,19.19
2018-08-16T12:14:27.374Z,17.68
2018-08-16T12:16:56.736Z,15.67
2018-08-16T12:19:25.192Z,15.94
2018-08-16T12:21:53.512Z,17.73
2018-08-16T12:24:21.860Z,18.46
2018-08-16T12:26:50.192Z,16.15
2018-08-16T12:29:18.541Z,16.84
2018-08-16T12:31:46.918Z,17.62
2018-08-16T12:34:15.268Z,16.49
2018-08-16T12:36:43.604Z,16.86
2018-08-16T12:39:11.959Z,19.94
2018-08-16T12:41:40.311Z,18.99
2018-08-16T12:44:08.711Z,19.32
2018-08-16T12:46:37.269Z,19.19
2018-08-16T12:49:05.719Z,19.19
2018-08-16T12:51:34.250Z,17.28
2018-08-16T12:54:02.660Z,17.49
2018-08-16T12:56:31.054Z,19.65
2018-08-16T12:59:00.369Z,18.37
2018-08-16T13:01:28.800Z,18.59
2018-08-16T13:03:57.215Z,19.26
2018-08-16T13:06:25.577Z,17.79
2018-08-16T13:08:53.923Z,19.72
2018-08-16T13:11:22.424Z,18.60
2018-08-16T13:13:50.820Z,20.21
2018-08-16T13:16:19.187Z,17.37
2018-08-16T13:18:47.548Z,18.60
2018-08-16T13:21:15.924Z,18.76
2018-08-16T13:23:44.392Z,18.07
2018-08-16T13:26:12.669Z,19.22
2018-08-16T13:28:41.048Z,18.61
2018-08-16T13:31:09.497Z,17.38
2018-08-16T13:33:37.804Z,17.72
2018-08-16T13:36:06.186Z,17.83
2018-08-16T13:38:35.019Z,18.20
2018-08-16T13:41:03.402Z,17.86
2018-08-16T13:43:31.792Z,18.42
2018-08-16T13:46:00.165Z,18.29
2018-08-16T13:48:28.576Z,16.63
2018-08-16T13:50:56.848Z,19.54
2018-08-16T13:53:25.195Z,19.42
2018-08-16T13:55:53.552Z,20.37
2018-08-16T13:58:21.885Z,20.11
2018-08-16T14:00:50.233Z,19.49
2018-08-16T14:03:19.404Z,19.18
2018-08-16T14:05:47.790Z,19.37
2018-08-16T14:08:16.120Z,19.07
2018-08-16T14:10:46.343Z,18.83
2018-08-16T14:13:15.989Z,20.01
2018-08-16T14:15:44.476Z,19.49
2018-08-16T14:18:13.057Z,18.95
2018-08-16T14:20:41.459Z,19.38
2018-08-16T14:23:09.936Z,18.01
2018-08-16T14:25:38.485Z,18.30
2018-08-16T14:28:06.876Z,19.97
2018-08-16T14:30:35.248Z,19.98
2018-08-16T14:33:03.609Z,19.91
2018-08-16T14:35:31.953Z,18.79
2018-08-16T14:38:00.295Z,19.22
2018-08-16T14:40:28.656Z,21.99
2018-08-16T14:42:57.403Z,23.02
2018-08-16T14:45:25.782Z,21.63
2018-08-16T14:47:54.140Z,21.76
2018-08-16T14:50:22.523Z,20.42
2018-08-16T14:52:51.177Z,21.01
2018-08-16T14:55:19.636Z,20.38
2018-08-16T14:57:47.992Z,20.64
2018-08-16T15:00:16.362Z,20.58
2018-08-16T15:02:44.700Z,20.99
2018-08-16T15:05:13.053Z,21.43
2018-08-16T15:07:42.235Z,21.66
2018-08-16T15:10:10.600Z,21.21
2018-08-16T15:12:38.929Z,23.65
2018-08-16T15:15:07.300Z,21.81
2018-08-16T15:17:35.688Z,23.04
2018-08-16T15:20:04.162Z,24.30
2018-08-16T15:22:32.512Z,23.09
2018-08-16T15:25:00.841Z,23.64
2018-08-16T15:27:29.224Z,23.42
2018-08-16T15:29:57.585Z,22.92
2018-08-16T15:32:25.957Z,22.60
2018-08-16T15:34:54.283Z,23.14
2018-08-16T15:37:23.858Z,27.01
2018-08-16T15:39:52.245Z,27.73
2018-08-16T15:42:20.620Z,28.41
2018-08-16T15:44:49.638Z,27.99
2018-08-16T15:47:18.048Z,27.84
2018-08-16T15:49:46.420Z,26.72
2018-08-16T15:52:15.584Z,26.72
2018-08-16T15:54:43.912Z,27.83
2018-08-16T15:57:12.444Z,28.37
2018-08-16T15:59:41.239Z,27.39
2018-08-16T16:02:10.644Z,28.57
2018-08-16T16:04:39.000Z,28.34
2018-08-16T16:07:07.630Z,28.38
2018-08-16T16:09:35.972Z,28.29
2018-08-16T16:12:04.367Z,28.15
2018-08-16T16:14:32.729Z,28.25
2018-08-16T16:17:01.142Z,29.09
2018-08-16T16:19:29.545Z,28.12
2018-08-16T16:21:57.893Z,28.75
2018-08-16T16:24:26.248Z,28.64
2018-08-16T16:26:54.608Z,29.46
2018-08-16T16:29:22.933Z,30.60
2018-08-16T16:31:51.289Z,30.40
2018-08-16T16:34:19.632Z,31.12
2018-08-16T16:36:48.300Z,29.47
2018-08-16T16:39:16.677Z,30.69
2018-08-16T16:41:45.040Z,32.34
2018-08-16T16:44:13.424Z,30.22
2018-08-16T16:46:41.833Z,30.09
2018-08-16T16:49:10.213Z,30.49
2018-08-16T16:51:38.588Z,32.21
2018-08-16T16:54:07.141Z,31.85
2018-08-16T16:56:35.580Z,33.04
2018-08-16T16:59:03.977Z,32.01
2018-08-16T17:01:32.416Z,31.92
2018-08-16T17:04:00.804Z,31.79
2018-08-16T17:06:29.171Z,30.97
2018-08-16T17:08:57.538Z,32.01
2018-08-16T17:11:25.928Z,32.50
2018-08-16T17:13:54.572Z,33.36
2018-08-16T17:16:23.704Z,32.83
2018-08-16T17:18:52.087Z,33.70
2018-08-16T17:21:20.452Z,31.55
2018-08-16T17:23:48.780Z,31.29
2018-08-16T17:26:17.171Z,32.39
2018-08-16T17:28:46.080Z,31.21
2018-08-16T17:31:14.433Z,32.10
2018-08-16T17:33:42.801Z,31.29
2018-08-16T17:36:11.145Z,31.94
2018-08-16T17:38:39.521Z,32.02
2018-08-16T17:41:08.016Z,33.51
2018-08-16T17:43:37.452Z,33.67
2018-08-16T17:46:06.400Z,34.80
2018-08-16T17:48:34.788Z,35.17
2018-08-16T17:51:03.148Z,35.82
2018-08-16T17:53:31.504Z,36.88
2018-08-16T17:56:00.076Z,37.59
2018-08-16T17:58:28.448Z,37.90
2018-08-16T18:00:56.876Z,40.44
2018-08-16T18:03:25.192Z,41.67
2018-08-16T18:05:53.591Z,42.56
2018-08-16T18:08:21.988Z,43.15
2018-08-16T18:10:50.350Z,43.90
2018-08-16T18:13:18.745Z,44.54
2018-08-16T18:15:47.112Z,45.75
2018-08-16T18:18:15.472Z,46.15
2018-08-16T18:20:43.807Z,46.87
2018-08-16T18:23:12.189Z,46.93
2018-08-16T18:25:41.405Z,46.96
2018-08-16T18:28:09.780Z,48.58
2018-08-16T18:30:38.152Z,48.72
2018-08-16T18:33:07.540Z,49.02
2018-08-16T18:35:36.008Z,50.46
2018-08-16T18:38:04.397Z,49.97
2018-08-16T18:40:32.780Z,51.48
2018-08-16T18:43:01.144Z,51.75
2018-08-16T18:45:30.764Z,52.88
2018-08-16T18:47:59.188Z,53.61
2018-08-16T18:50:27.655Z,54.73
2018-08-16T18:52:56.012Z,54.83
2018-08-16T18:55:25.253Z,55.91
2018-08-16T18:57:53.645Z,56.55
2018-08-16T19:00:21.989Z,56.79
2018-08-16T19:02:50.357Z,55.08
2018-08-16T19:05:18.775Z,56.73
2018-08-16T19:07:47.145Z,56.46
2018-08-16T19:10:16.493Z,56.23
2018-08-16T19:12:45.940Z,57.04
2018-08-16T19:15:14.299Z,58.15
2018-08-16T19:17:42.717Z,58.91
2018-08-16T19:20:11.108Z,59.43
2018-08-16T19:22:39.547Z,59.83
2018-08-16T19:25:10.442Z,60.93
2018-08-16T19:27:38.907Z,61.05
2018-08-16T19:30:07.302Z,60.90
2018-08-16T19:32:35.819Z,61.07
2018-08-16T19:35:04.668Z,60.46
2018-08-16T19:37:33.468Z,60.70
2018-08-16T19:40:01.833Z,60.84
2018-08-16T19:42:30.227Z,61.87
2018-08-16T19:44:58.591Z,61.23
2018-08-16T19:47:26.956Z,61.81
2018-08-16T19:49:55.645Z,61.39
2018-08-16T19:52:23.988Z,62.33
2018-08-16T19:54:52.329Z,63.20
2018-08-16T19:57:20.676Z,62.81
2018-08-16T19:59:49.042Z,63.32
2018-08-16T20:02:17.363Z,63.85
2018-08-16T20:04:45.812Z,63.25
2018-08-16T20:07:14.088Z,62.96
2018-08-16T20:09:42.496Z,62.28
2018-08-16T20:12:11.328Z,63.12
2018-08-16T20:14:39.708Z,63.81
2018-08-16T20:17:08.408Z,63.91
2018-08-16T20:19:36.860Z,61.89
2018-08-16T20:22:10.941Z,62.98
2018-08-16T20:24:39.292Z,63.13
2018-08-16T20:27:07.322Z,63.34
2018-08-16T20:29:35.692Z,64.26
2018-08-16T20:32:04.075Z,64.66
2018-08-16T20:34:32.440Z,64.21
2018-08-16T20:37:00.820Z,64.64
2018-08-16T20:39:29.192Z,64.54
2018-08-16T20:41:57.569Z,64.66
2018-08-16T20:44:26.089Z,65.40
2018-08-16T20:46:54.468Z,65.37
2018-08-16T20:49:22.911Z,64.65
2018-08-16T20:51:51.252Z,64.20
2018-08-16T20:54:19.656Z,64.01
2018-08-16T20:56:48.131Z,64.23
2018-08-16T20:59:17.480Z,65.12
2018-08-16T21:01:45.808Z,65.32
2018-08-16T21:04:14.152Z,64.59
2018-08-16T21:06:42.845Z,64.63
2018-08-16T21:09:11.724Z,65.25
2018-08-16T21:11:40.169Z,65.18
2018-08-16T21:14:08.783Z,65.02
2018-08-16T21:16:37.132Z,65.47
2018-08-16T21:19:05.499Z,64.85
2018-08-16T21:21:33.886Z,65.18
2018-08-16T21:24:02.227Z,64.47
2018-08-16T21:26:30.569Z,63.58
2018-08-16T21:28:58.940Z,63.91
2018-08-16T21:31:27.292Z,63.93
2018-08-16T21:33:55.656Z,65.10
2018-08-16T21:36:24.345Z,65.61
2018-08-16T21:38:52.703Z,64.94
2018-08-16T21:41:21.059Z,65.95
2018-08-16T21:43:49.788Z,65.44
2018-08-16T21:46:18.444Z,65.92
2018-08-16T21:48:47.108Z,66.03
2018-08-16T21:51:15.439Z,66.21
2018-08-16T21:53:43.801Z,66.16
2018-08-16T21:56:12.712Z,67.13
2018-08-16T21:58:41.108Z,65.73
2018-08-16T22:01:09.496Z,67.14
2018-08-16T22:03:37.860Z,68.22
2018-08-16T22:06:11.321Z,68.12
2018-08-16T22:08:49.769Z,69.31
2018-08-16T22:11:18.227Z,69.74
2018-08-16T22:13:46.637Z,69.20
2018-08-16T22:16:15.861Z,69.07
2018-08-16T22:18:44.260Z,69.77
2018-08-16T22:21:12.660Z,70.11
2018-08-16T22:23:41.635Z,70.50
2018-08-16T22:26:10.056Z,70.01
2018-08-16T22:28:38.391Z,70.52
2018-08-16T22:31:06.943Z,70.82
2018-08-16T22:33:35.292Z,70.46
2018-08-16T22:36:03.644Z,70.67
2018-08-16T22:38:31.977Z,70.87
2018-08-16T22:41:00.355Z,70.69
2018-08-16T22:43:28.712Z,71.18
2018-08-16T22:45:57.120Z,71.11
2018-08-16T22:48:25.712Z,71.52
2018-08-16T22:50:54.115Z,71.78
2018-08-16T22:53:22.437Z,71.59
2018-08-16T22:55:50.796Z,71.78
2018-08-16T22:58:19.808Z,71.22
2018-08-16T23:00:48.152Z,71.25
2018-08-16T23:03:17.400Z,71.64
2018-08-16T23:05:45.776Z,71.43
2018-08-16T23:08:14.182Z,72.18
2018-08-16T23:10:42.536Z,72.87
2018-08-16T23:13:10.871Z,73.35
2018-08-16T23:15:39.248Z,73.43
2018-08-16T23:18:07.700Z,73.60
2018-08-16T23:20:36.057Z,73.10
2018-08-16T23:23:04.413Z,73.66
2018-08-16T23:25:32.791Z,73.66
2018-08-16T23:28:01.428Z,74.16
2018-08-16T23:30:29.776Z,73.69
2018-08-16T23:32:58.104Z,74.15
2018-08-16T23:35:26.488Z,73.27
2018-08-16T23:37:54.861Z,73.92
2018-08-16T23:40:23.260Z,73.79
2018-08-16T23:42:51.644Z,74.52
2018-08-16T23:45:20.283Z,74.29
2018-08-16T23:47:59.861Z,74.60
2018-08-16T23:50:28.472Z,74.24
2018-08-16T23:52:56.833Z,75.08
2018-08-16T23:55:25.249Z,74.36
2018-08-16T23:57:53.617Z,75.03
